Time;durP1;ratioP1;P1;durP2;ratioP2;P2;SDS_P1;SDS_P2;PMS_P1;PMS_P2;Temp;Humidity;BMP_temperature;BMP_pressure;BME280_temperature;BME280_humidity;BME280_pressure;Samples;Min_cycle;Max_cycle;Signal;HPM_P1;HPM_P2
2023/05/21 00:00:53;;;;;;;7.00;6.30;;;;;;;13.97;100.00;98460.75;15271393;19;20015;-45
2023/05/21 00:06:21;;;;;;;7.72;6.35;;;;;;;13.93;100.00;98459.47;15277656;19;20058;-45
2023/05/21 00:11:46;;;;;;;8.98;6.70;;;;;;;13.85;100.00;98450.38;15269867;19;20017;-45
2023/05/21 00:17:11;;;;;;;8.43;6.60;;;;;;;13.79;100.00;98458.38;15275772;19;20018;-45
2023/05/21 00:22:39;;;;;;;7.68;6.97;;;;;;;13.72;100.00;98444.72;15274526;19;20018;-46
2023/05/21 00:28:05;;;;;;;7.75;7.03;;;;;;;13.67;100.00;98445.25;15266706;19;20021;-45
2023/05/21 00:33:30;;;;;;;7.93;7.20;;;;;;;13.57;100.00;98452.78;15273332;19;20130;-46
2023/05/21 00:38:58;;;;;;;8.75;7.03;;;;;;;13.51;100.00;98448.09;15268470;19;20429;-46
2023/05/21 00:44:24;;;;;;;8.77;7.25;;;;;;;13.41;100.00;98442.91;15271132;19;20011;-46
2023/05/21 00:49:50;;;;;;;8.35;7.50;;;;;;;13.34;100.00;98445.44;15268377;19;20806;-46
2023/05/21 00:55:18;;;;;;;8.43;7.63;;;;;;;13.33;100.00;98456.47;15273591;19;20015;-45
2023/05/21 01:00:43;;;;;;;8.70;7.80;;;;;;;13.31;100.00;98453.09;15263095;19;20027;-46
2023/05/21 01:06:07;;;;;;;8.63;7.70;;;;;;;13.25;100.00;98449.22;15266535;19;20035;-45
2023/05/21 01:11:43;;;;;;;8.75;7.95;;;;;;;13.26;100.00;98445.50;15269440;19;20011;-45
2023/05/21 01:17:09;;;;;;;9.45;7.65;;;;;;;13.23;100.00;98438.56;15270061;19;20542;-45
2023/05/21 01:22:38;;;;;;;10.63;8.18;;;;;;;13.22;100.00;98445.03;15272060;19;20018;-46
2023/05/21 01:28:06;;;;;;;7.85;7.15;;;;;;;13.19;100.00;98426.44;15270853;19;20018;-46
2023/05/21 01:33:37;;;;;;;8.93;8.02;;;;;;;13.15;100.00;98419.69;15266724;19;20015;-45
2023/05/21 01:39:08;;;;;;;9.75;8.27;;;;;;;13.10;100.00;98427.50;15278863;19;20022;-46
2023/05/21 01:44:37;;;;;;;11.77;8.53;;;;;;;13.08;100.00;98432.25;15286831;19;20011;-49
2023/05/21 01:50:02;;;;;;;9.80;8.20;;;;;;;13.03;100.00;98430.09;15289418;19;20979;-51
2023/05/21 01:55:29;;;;;;;9.60;8.60;;;;;;;13.02;100.00;98432.94;15291579;19;20015;-47
2023/05/21 02:00:56;;;;;;;9.70;8.77;;;;;;;12.95;100.00;98433.66;15279532;19;20416;-47
2023/05/21 02:06:21;;;;;;;8.77;7.88;;;;;;;12.95;100.00;98432.81;15268642;19;20097;-46
2023/05/21 02:11:45;;;;;;;9.77;8.77;;;;;;;12.90;100.00;98430.63;15263774;19;20538;-46
2023/05/21 02:17:13;;;;;;;9.80;8.80;;;;;;;12.87;100.00;98424.75;15280723;19;20015;-45
2023/05/21 02:22:44;;;;;;;10.38;8.80;;;;;;;12.83;100.00;98412.59;15282944;19;20485;-46
2023/05/21 02:28:09;;;;;;;9.75;8.75;;;;;;;12.78;100.00;98416.69;15281931;19;20023;-45
2023/05/21 02:33:37;;;;;;;9.80;8.80;;;;;;;12.75;100.00;98418.91;15280945;19;20498;-46
2023/05/21 02:39:02;;;;;;;9.00;8.18;;;;;;;12.71;100.00;98420.25;15272535;19;20081;-46
2023/05/21 02:44:26;;;;;;;9.40;8.50;;;;;;;12.66;100.00;98415.38;15280934;19;20089;-46
2023/05/21 02:49:55;;;;;;;9.82;8.63;;;;;;;12.62;100.00;98419.44;15276391;19;20022;-46
2023/05/21 02:55:27;;;;;;;10.38;9.07;;;;;;;12.57;100.00;98414.56;15278227;19;20037;-46
2023/05/21 03:00:54;;;;;;;9.90;8.90;;;;;;;12.56;100.00;98429.09;15275972;19;20037;-48
2023/05/21 03:06:21;;;;;;;10.50;9.40;;;;;;;12.52;100.00;98422.34;15279944;19;20392;-46
2023/05/21 03:11:46;;;;;;;10.30;9.20;;;;;;;12.52;100.00;98418.78;15266265;19;20046;-45
2023/05/21 03:17:12;;;;;;;10.07;9.07;;;;;;;12.48;100.00;98421.00;15277763;19;20356;-46
2023/05/21 03:22:40;;;;;;;10.52;9.45;;;;;;;12.50;100.00;98429.78;15279612;19;20021;-46
2023/05/21 03:28:05;;;;;;;10.68;9.57;;;;;;;12.48;100.00;98426.41;15273886;19;20014;-46
2023/05/21 03:33:32;;;;;;;11.38;10.13;;;;;;;12.50;100.00;98429.78;15278547;19;20419;-46
2023/05/21 03:39:19;;;;;;;11.00;9.90;;;;;;;12.49;100.00;98431.63;15274901;19;20505;-45
2023/05/21 03:44:44;;;;;;;11.32;10.13;;;;;;;12.49;100.00;98433.50;15271417;19;20596;-45
2023/05/21 03:50:28;;;;;;;10.95;9.85;;;;;;;12.49;100.00;98437.03;15272158;19;20078;-45
2023/05/21 03:55:56;;;;;;;12.68;10.13;;;;;;;12.52;100.00;98453.94;15275322;19;20011;-46
2023/05/21 04:01:21;;;;;;;14.05;10.40;;;;;;;12.54;100.00;98441.91;15269312;19;20078;-46
2023/05/21 04:06:47;;;;;;;11.85;10.57;;;;;;;12.60;100.00;98452.06;15275493;19;20015;-45
2023/05/21 04:12:16;;;;;;;10.13;9.18;;;;;;;12.62;100.00;98460.84;15270071;19;20421;-45
2023/05/21 04:17:41;;;;;;;10.68;9.57;;;;;;;12.67;100.00;98459.44;15267070;19;20038;-45
2023/05/21 04:23:05;;;;;;;10.60;9.50;;;;;;;12.69;100.00;98454.72;15271709;19;20498;-44
2023/05/21 04:28:34;;;;;;;10.75;9.65;;;;;;;12.73;100.00;98450.66;15268177;19;20021;-44
2023/05/21 04:34:00;;;;;;;10.60;9.60;;;;;;;12.77;100.00;98457.38;15270694;19;20360;-49
2023/05/21 04:39:25;;;;;;;10.88;9.80;;;;;;;12.81;100.00;98458.72;15269441;19;20030;-45
2023/05/21 04:44:54;;;;;;;10.82;9.73;;;;;;;12.86;100.00;98460.91;15269471;19;20022;-45
2023/05/21 04:50:22;;;;;;;11.18;10.07;;;;;;;12.87;100.00;98458.06;15265964;19;20006;-46
2023/05/21 04:55:46;;;;;;;11.38;10.18;;;;;;;12.93;100.00;98464.63;15269841;19;20027;-45
2023/05/21 05:01:16;;;;;;;10.75;9.65;;;;;;;13.00;100.00;98465.59;15265304;19;20015;-45
2023/05/21 05:06:41;;;;;;;11.50;10.00;;;;;;;13.08;100.00;98464.72;15271163;19;20366;-45
2023/05/21 05:12:06;;;;;;;12.02;9.75;;;;;;;13.15;100.00;98454.84;15267227;19;20010;-44
2023/05/21 05:17:34;;;;;;;10.90;9.80;;;;;;;13.20;100.00;98452.47;15260046;19;20022;-44
2023/05/21 05:22:59;;;;;;;10.15;9.15;;;;;;;13.26;100.00;98438.22;15265802;19;20082;-45
2023/05/21 05:28:25;;;;;;;10.27;9.10;;;;;;;13.32;100.00;98447.50;15267213;19;20015;-46
2023/05/21 05:33:52;;;;;;;12.05;9.55;;;;;;;13.39;100.00;98445.81;15261010;19;20557;-44
2023/05/21 05:39:24;;;;;;;11.00;9.85;;;;;;;13.47;100.00;98449.47;15258710;19;20018;-45
2023/05/21 05:44:50;;;;;;;11.05;9.65;;;;;;;13.57;100.00;98441.94;15263161;19;20018;-46
2023/05/21 05:50:21;;;;;;;10.13;9.10;;;;;;;13.67;100.00;98445.25;15265147;19;20019;-48
2023/05/21 05:55:46;;;;;;;10.77;9.70;;;;;;;13.82;100.00;98453.44;15282374;19;20053;-45
2023/05/21 06:01:15;;;;;;;9.88;8.90;;;;;;;13.97;100.00;98436.38;15278375;19;20010;-46
2023/05/21 06:06:43;;;;;;;10.57;8.93;;;;;;;14.18;100.00;98436.53;15278838;19;20010;-43
2023/05/21 06:12:08;;;;;;;9.57;8.63;;;;;;;14.39;100.00;98436.84;15275647;19;20477;-47
2023/05/21 06:17:32;;;;;;;8.65;7.75;;;;;;;14.66;100.00;98431.81;15278748;19;20010;-46
2023/05/21 06:23:01;;;;;;;9.38;7.70;;;;;;;14.91;100.00;98432.38;15273513;19;20027;-45
2023/05/21 06:28:27;;;;;;;9.15;7.90;;;;;;;15.18;100.00;98422.66;15277582;19;20020;-46
2023/05/21 06:33:54;;;;;;;8.82;8.02;;;;;;;15.44;100.00;98421.28;15272232;19;20010;-45
2023/05/21 06:39:29;;;;;;;7.82;7.10;;;;;;;15.71;100.00;98411.53;15273047;19;20022;-46
2023/05/21 06:44:53;;;;;;;8.60;7.70;;;;;;;15.97;100.00;98404.69;15274658;19;20403;-45
2023/05/21 06:50:21;;;;;;;8.10;7.30;;;;;;;16.28;100.00;98411.63;15273284;19;20015;-48
2023/05/21 06:55:52;;;;;;;7.53;6.82;;;;;;;16.62;100.00;98401.78;15271000;19;20011;-46
2023/05/21 07:01:24;;;;;;;6.90;6.20;;;;;;;16.97;100.00;98397.38;15274160;19;20003;-48
2023/05/21 07:06:48;;;;;;;5.93;5.32;;;;;;;17.32;100.00;98398.09;15278476;19;20479;-47
2023/05/21 07:12:18;;;;;;;8.65;5.38;;;;;;;17.69;100.00;98395.03;15271571;19;20006;-46
2023/05/21 07:17:42;;;;;;;5.03;4.60;;;;;;;18.01;100.00;98387.09;15278703;19;20780;-45
2023/05/21 07:23:08;;;;;;;6.78;4.85;;;;;;;18.35;100.00;98382.44;15275038;19;20022;-45
2023/05/21 07:28:35;;;;;;;5.63;5.05;;;;;;;18.61;100.00;98370.63;15271729;19;20018;-46
2023/05/21 07:34:00;;;;;;;5.25;4.75;;;;;;;18.83;100.00;98362.13;15271685;19;20011;-47
2023/05/21 07:39:25;;;;;;;6.95;4.38;;;;;;;19.02;100.00;98371.31;15244471;19;20545;-48
2023/05/21 07:44:53;;;;;;;5.75;4.55;;;;;;;19.18;100.00;98369.97;15250809;19;20006;-47
2023/05/21 07:50:22;;;;;;;5.63;4.50;;;;;;;19.38;100.00;98360.84;15270380;19;20018;-47
2023/05/21 07:55:49;;;;;;;4.65;4.10;;;;;;;19.59;100.00;98365.09;15272404;19;20014;-46
2023/05/21 08:01:17;;;;;;;5.10;4.63;;;;;;;19.86;100.00;98363.03;15265688;19;20024;-47
2023/05/21 08:06:36;;;;;;;4.53;4.10;;;;;;;20.07;100.00;98351.91;15274462;19;20011;-48
2023/05/21 08:12:02;;;;;;;5.22;4.60;;;;;;;20.27;100.00;98355.31;15267751;19;20014;-48
2023/05/21 08:17:30;;;;;;;4.72;4.20;;;;;;;20.38;100.00;98356.44;15278399;19;20074;-47
2023/05/21 08:22:57;;;;;;;6.72;4.60;;;;;;;20.50;100.00;98355.69;15271303;19;20018;-46
2023/05/21 08:28:27;;;;;;;5.05;4.47;;;;;;;20.55;100.00;98350.38;15274407;19;20506;-49
2023/05/21 08:34:02;;;;;;;4.70;4.30;;;;;;;20.70;100.00;98341.78;15260385;19;20396;-49
2023/05/21 08:39:32;;;;;;;5.00;4.33;;;;;;;20.93;100.00;98339.19;15269897;19;20019;-47
2023/05/21 08:45:00;;;;;;;5.63;4.07;;;;;;;21.16;100.00;98342.28;15271835;19;20014;-45
2023/05/21 08:50:30;;;;;;;4.95;4.05;;;;;;;21.39;100.00;98336.88;15264978;19;20114;-46
2023/05/21 08:56:05;;;;;;;4.72;3.95;;;;;;;21.64;100.00;98340.53;15269859;19;20014;-49
2023/05/21 09:01:34;;;;;;;5.22;3.70;;;;;;;21.91;100.00;98337.34;15265138;19;20432;-47
2023/05/21 09:07:11;;;;;;;5.18;4.45;;;;;;;22.19;100.00;98328.41;15266167;19;20861;-46
2023/05/21 09:13:16;;;;;;;3.70;3.40;;;;;;;22.41;100.00;98327.81;15264236;19;20016;-46
2023/05/21 09:18:42;;;;;;;4.53;3.85;;;;;;;22.56;100.00;98319.06;15266400;19;20029;-47
2023/05/21 09:24:17;;;;;;;4.03;3.50;;;;;;;22.64;100.00;98332.41;15267720;19;20069;-47
2023/05/21 09:29:42;;;;;;;9.30;4.30;;;;;;;22.74;100.00;98332.66;15268881;19;20600;-47
2023/05/21 09:35:12;;;;;;;4.57;4.18;;;;;;;22.68;100.00;98333.59;15259998;19;20384;-46
2023/05/21 09:40:39;;;;;;;5.55;4.10;;;;;;;22.67;100.00;98334.69;15265891;19;20035;-49
2023/05/21 09:46:05;;;;;;;4.20;3.80;;;;;;;22.69;100.00;98329.78;15266889;19;20010;-46
2023/05/21 09:51:30;;;;;;;4.03;3.63;;;;;;;22.82;100.00;98322.34;15261582;19;20036;-45
2023/05/21 09:56:58;;;;;;;4.82;3.58;;;;;;;22.92;100.00;98323.41;15270431;19;20083;-46
2023/05/21 10:02:28;;;;;;;4.03;3.63;;;;;;;22.98;100.00;98321.59;15266277;19;20015;-45
2023/05/21 10:07:54;;;;;;;3.80;3.47;;;;;;;23.00;100.00;98311.16;15260384;19;21029;-45
2023/05/21 10:13:26;;;;;;;6.78;3.42;;;;;;;23.08;100.00;98310.78;15266136;19;20364;-47
2023/05/21 10:18:53;;;;;;;3.85;3.22;;;;;;;23.23;100.00;98301.16;15267646;19;20045;-48
2023/05/21 10:24:19;;;;;;;3.35;3.00;;;;;;;23.41;100.00;98302.03;15265888;19;20017;-45
2023/05/21 10:29:47;;;;;;;5.57;3.20;;;;;;;23.57;100.00;98295.72;15263108;19;20011;-47
2023/05/21 10:35:17;;;;;;;6.78;3.20;;;;;;;23.74;100.00;98283.88;15259963;19;20018;-45
2023/05/21 10:40:49;;;;;;;3.63;3.10;;;;;;;23.93;100.00;98281.69;15269868;19;20022;-49
2023/05/21 10:46:46;;;;;;;4.05;3.08;;;;;;;24.13;100.00;98275.69;15280119;19;20014;-51
2023/05/21 10:52:22;;;;;;;3.97;3.00;;;;;;;24.34;100.00;98260.31;15275906;19;20027;-48
2023/05/21 10:58:08;;;;;;;3.38;3.00;;;;;;;24.61;100.00;98254.84;15276113;19;20857;-47
2023/05/21 11:03:36;;;;;;;4.00;2.50;;;;;;;24.84;100.00;98252.94;15278302;19;20016;-46
2023/05/21 11:09:04;;;;;;;3.17;1.83;;;;;;;24.94;100.00;98232.91;15275036;19;20474;-49
2023/05/21 11:14:40;;;;;;;3.30;2.00;;;;;;;24.92;100.00;98235.09;15266673;19;20097;-46
2023/05/21 11:20:10;;;;;;;2.38;2.00;;;;;;;25.03;82.96;98241.53;15274768;19;20027;-45
2023/05/21 11:25:35;;;;;;;3.75;1.85;;;;;;;25.13;88.63;98236.13;15276058;19;20017;-48
2023/05/21 11:31:24;;;;;;;4.68;1.83;;;;;;;25.26;69.42;98225.75;15270978;19;20680;-50
2023/05/21 11:36:53;;;;;;;2.25;1.83;;;;;;;25.41;73.79;98236.94;15278434;19;20010;-45
2023/05/21 11:42:36;;;;;;;3.40;1.80;;;;;;;25.50;65.77;98227.09;15266314;19;20354;-50
2023/05/21 11:48:02;;;;;;;4.38;1.80;;;;;;;25.59;62.78;98230.19;15264413;19;20074;-45
2023/05/21 11:53:29;;;;;;;5.97;1.65;;;;;;;25.75;63.63;98227.56;15269879;19;20017;-47
2023/05/21 11:58:56;;;;;;;3.63;1.50;;;;;;;25.96;59.81;98231.25;15270609;19;20387;-45
2023/05/21 12:04:28;;;;;;;2.13;1.50;;;;;;;26.17;59.54;98228.66;15269377;19;20007;-47
2023/05/21 12:09:55;;;;;;;2.08;1.60;;;;;;;26.34;57.45;98231.22;15267882;19;20355;-50
2023/05/21 12:15:21;;;;;;;2.28;1.30;;;;;;;26.36;56.25;98221.56;15266035;19;20708;-49
2023/05/21 12:20:47;;;;;;;2.05;1.60;;;;;;;26.40;54.24;98224.59;15256868;19;20025;-87
2023/05/21 12:26:14;;;;;;;2.78;1.50;;;;;;;26.45;52.76;98219.13;15312404;19;20026;-85
2023/05/21 12:31:50;;;;;;;2.30;1.42;;;;;;;26.51;50.56;98218.00;15310876;19;20010;-85
2023/05/21 12:37:16;;;;;;;2.10;1.48;;;;;;;26.68;54.82;98219.75;15309039;19;20273;-86
2023/05/21 12:42:51;;;;;;;3.20;1.48;;;;;;;26.91;50.61;98210.13;15267656;19;20100;-44
2023/05/21 12:48:16;;;;;;;1.63;1.42;;;;;;;27.04;50.67;98214.31;15268195;19;20014;-46
2023/05/21 12:53:45;;;;;;;4.50;1.30;;;;;;;27.19;50.15;98214.31;15263279;19;20498;-47
2023/05/21 12:59:17;;;;;;;4.33;1.50;;;;;;;27.32;48.21;98204.66;15268722;19;20018;-48
2023/05/21 13:04:44;;;;;;;1.27;1.17;;;;;;;27.49;49.24;98209.06;15262067;19;20041;-47
2023/05/21 13:10:11;;;;;;;3.63;1.35;;;;;;;27.55;47.18;98207.13;15268765;19;20014;-47
2023/05/21 13:15:38;;;;;;;2.10;1.20;;;;;;;27.56;46.91;98208.78;15265167;19;20082;-46
2023/05/21 13:21:03;;;;;;;1.73;1.30;;;;;;;27.59;44.25;98205.47;15261931;19;20817;-47
2023/05/21 13:26:27;;;;;;;2.20;1.25;;;;;;;27.65;47.25;98207.97;15268068;19;20021;-48
2023/05/21 13:31:54;;;;;;;1.92;1.38;;;;;;;27.72;42.92;98199.38;15266404;19;20041;-44
2023/05/21 13:37:19;;;;;;;3.65;1.40;;;;;;;27.88;46.46;98202.94;15264193;19;20414;-47
2023/05/21 13:42:51;;;;;;;3.05;1.38;;;;;;;28.12;45.80;98199.56;15262435;19;20422;-51
2023/05/21 13:48:18;;;;;;;2.10;1.30;;;;;;;28.32;44.47;98198.69;15267733;19;20014;-49
2023/05/21 13:53:43;;;;;;;1.77;1.40;;;;;;;28.48;45.48;98199.44;15257698;19;20021;-50
2023/05/21 13:59:09;;;;;;;1.45;1.35;;;;;;;28.78;44.52;98208.72;15267362;19;20053;-45
2023/05/21 14:04:36;;;;;;;2.45;1.40;;;;;;;29.07;46.31;98207.97;15260180;19;20120;-51
2023/05/21 14:10:02;;;;;;;2.70;1.40;;;;;;;29.46;46.85;98204.34;15270032;19;20011;-45
2023/05/21 14:15:26;;;;;;;2.33;1.30;;;;;;;29.81;47.42;98204.31;15277704;19;20024;-46
2023/05/21 14:20:54;;;;;;;2.72;1.40;;;;;;;30.25;45.59;98197.72;15280560;19;20085;-45
2023/05/21 14:26:19;;;;;;;1.55;1.08;;;;;;;30.17;45.48;98200.31;15272115;19;20025;-48
2023/05/21 14:31:45;;;;;;;1.98;1.20;;;;;;;30.07;43.58;98190.97;15278384;19;20013;-49
2023/05/21 14:37:12;;;;;;;6.40;1.50;;;;;;;30.06;44.57;98182.94;15277926;19;20476;-49
2023/05/21 14:42:44;;;;;;;2.05;1.20;;;;;;;30.12;43.81;98193.72;15269412;19;20032;-48
2023/05/21 14:48:10;;;;;;;3.65;1.33;;;;;;;30.11;42.13;98183.72;15276293;19;20022;-48
2023/05/21 14:53:47;;;;;;;3.13;1.50;;;;;;;29.83;43.73;98188.19;15273781;19;20094;-45
2023/05/21 14:59:13;;;;;;;3.38;1.52;;;;;;;29.32;42.47;98187.50;15265665;19;20015;-49
2023/05/21 15:04:37;;;;;;;3.95;1.50;;;;;;;29.14;44.90;98180.72;15272136;19;20467;-50
2023/05/21 15:10:04;;;;;;;5.25;1.23;;;;;;;29.12;44.06;98182.13;15276033;19;20473;-46
2023/05/21 15:15:30;;;;;;;1.45;1.20;;;;;;;28.93;44.35;98191.13;15261162;19;20041;-45
2023/05/21 15:20:55;;;;;;;3.33;1.25;;;;;;;28.90;43.68;98186.19;15285138;19;20018;-49
2023/05/21 15:26:24;;;;;;;2.30;1.20;;;;;;;28.71;43.92;98174.91;15286733;19;20007;-49
2023/05/21 15:31:49;;;;;;;3.65;1.50;;;;;;;28.40;43.88;98175.09;15276287;19;20018;-48
2023/05/21 15:37:14;;;;;;;2.05;1.20;;;;;;;27.83;44.92;98169.72;15283800;19;20007;-46
2023/05/21 15:42:48;;;;;;;2.85;1.17;;;;;;;27.48;44.83;98175.06;15281332;19;20023;-45
2023/05/21 15:48:13;;;;;;;2.78;1.50;;;;;;;27.38;45.72;98169.50;15284733;19;20018;-47
2023/05/21 15:53:38;;;;;;;5.13;1.40;;;;;;;27.15;46.78;98176.41;15282482;19;20648;-45
2023/05/21 15:59:05;;;;;;;2.05;1.40;;;;;;;26.99;46.07;98162.59;15286060;19;20028;-45
2023/05/21 16:04:31;;;;;;;5.78;1.50;;;;;;;26.84;46.74;98168.13;15275062;19;20019;-48
2023/05/21 16:09:57;;;;;;;2.63;1.60;;;;;;;26.53;51.61;98162.47;15284810;19;20021;-50
2023/05/21 16:15:24;;;;;;;4.35;1.90;;;;;;;26.22;57.42;98167.91;15282320;19;20021;-47
2023/05/21 16:20:49;;;;;;;2.88;1.80;;;;;;;25.93;65.37;98166.38;15282404;19;20506;-45
2023/05/21 16:26:13;;;;;;;3.67;2.20;;;;;;;25.63;71.01;98165.13;15283858;19;20363;-48
2023/05/21 16:31:40;;;;;;;2.53;2.00;;;;;;;25.34;79.68;98170.13;15281300;19;20010;-47
2023/05/21 16:37:07;;;;;;;4.38;2.20;;;;;;;25.15;80.43;98165.03;15273943;19;20013;-45
2023/05/21 16:42:38;;;;;;;2.10;1.90;;;;;;;25.01;85.67;98170.16;15281012;19;20026;-46
2023/05/21 16:48:07;;;;;;;4.63;2.05;;;;;;;24.87;91.61;98166.97;15280897;19;20355;-46
2023/05/21 16:53:31;;;;;;;2.78;1.90;;;;;;;24.72;91.77;98161.34;15281466;19;20017;-45
2023/05/21 16:58:56;;;;;;;2.42;2.10;;;;;;;24.57;97.18;98165.56;15282085;19;20014;-47
2023/05/21 17:04:23;;;;;;;2.15;1.95;;;;;;;24.46;96.77;98169.28;15278510;19;20022;-48
2023/05/21 17:09:48;;;;;;;4.05;2.10;;;;;;;24.33;100.00;98162.28;15274546;19;20015;-48
2023/05/21 17:15:14;;;;;;;4.90;2.10;;;;;;;24.25;99.86;98163.56;15272933;19;20078;-48
2023/05/21 17:20:42;;;;;;;4.45;2.17;;;;;;;24.23;100.00;98157.47;15273504;19;20446;-50
2023/05/21 17:26:08;;;;;;;4.85;2.38;;;;;;;24.11;100.00;98162.28;15277472;19;20014;-46
2023/05/21 17:31:33;;;;;;;2.22;2.03;;;;;;;24.04;100.00;98147.88;15277963;19;20627;-46
2023/05/21 17:37:02;;;;;;;2.97;2.20;;;;;;;23.96;100.00;98158.25;15276956;19;20352;-49
2023/05/21 17:42:33;;;;;;;3.50;2.20;;;;;;;23.90;100.00;98155.66;15269568;19;20748;-46
2023/05/21 17:47:58;;;;;;;;;;;;;;;23.77;100.00;98151.34;15292192;19;20014;-48
2023/05/21 17:53:25;;;;;;;2.97;2.30;;;;;;;23.69;100.00;98169.13;15287096;19;19907;-47
2023/05/21 17:58:50;;;;;;;4.15;2.30;;;;;;;23.52;100.00;98171.91;15293213;19;20018;-49
2023/05/21 18:04:16;;;;;;;3.17;2.30;;;;;;;23.34;100.00;98170.25;15286541;19;20593;-50
2023/05/21 18:09:44;;;;;;;4.28;2.30;;;;;;;23.19;100.00;98168.94;15291130;19;20014;-47
2023/05/21 18:15:08;;;;;;;4.68;2.40;;;;;;;23.01;100.00;98167.22;15279747;19;20014;-49
2023/05/21 18:20:33;;;;;;;3.83;2.13;;;;;;;22.87;100.00;98176.88;15291969;19;20021;-48
2023/05/21 18:26:00;;;;;;;2.47;2.20;;;;;;;22.77;100.00;98180.28;15290580;19;20113;-51
2023/05/21 18:31:25;;;;;;;2.30;2.10;;;;;;;22.63;100.00;98179.75;15290417;19;20013;-47
2023/05/21 18:36:49;;;;;;;2.15;1.98;;;;;;;22.46;100.00;98186.03;15286568;19;20014;-50
2023/05/21 18:42:23;;;;;;;2.55;2.20;;;;;;;22.28;100.00;98197.97;15286545;19;20014;-49
2023/05/21 18:47:48;;;;;;;2.92;2.22;;;;;;;22.13;100.00;98195.75;15284031;19;20019;-48
2023/05/21 18:53:13;;;;;;;2.80;2.10;;;;;;;21.93;100.00;98187.94;15285849;19;20018;-48
2023/05/21 18:58:40;;;;;;;2.55;1.92;;;;;;;21.80;100.00;98194.50;15283950;19;20033;-46
2023/05/21 19:04:05;;;;;;;2.47;2.22;;;;;;;21.66;100.00;98209.53;15284984;19;20482;-47
2023/05/21 19:09:31;;;;;;;2.33;2.00;;;;;;;21.51;100.00;98210.81;15289614;19;20045;-46
2023/05/21 19:14:59;;;;;;;4.80;2.25;;;;;;;21.37;100.00;98207.47;15282649;19;20478;-45
2023/05/21 19:20:25;;;;;;;3.00;2.20;;;;;;;21.24;100.00;98214.00;15290007;19;20021;-46
2023/05/21 19:25:50;;;;;;;3.03;1.90;;;;;;;21.14;100.00;98229.34;15288056;19;20014;-48
2023/05/21 19:31:18;;;;;;;2.33;2.10;;;;;;;21.03;100.00;98225.50;15283606;19;20011;-47
2023/05/21 19:36:42;;;;;;;2.80;2.00;;;;;;;20.92;100.00;98230.72;15281811;19;20019;-49
2023/05/21 19:42:18;;;;;;;3.42;2.15;;;;;;;20.84;100.00;98225.59;15287003;19;20034;-47
2023/05/21 19:47:45;;;;;;;3.80;1.90;;;;;;;20.74;100.00;98220.66;15281809;19;22236;-48
2023/05/21 19:53:10;;;;;;;2.35;2.10;;;;;;;20.67;100.00;98221.78;15283400;19;20035;-46
2023/05/21 19:58:35;;;;;;;3.25;2.08;;;;;;;20.57;100.00;98220.44;15287046;19;20018;-46
2023/05/21 20:04:02;;;;;;;2.70;2.10;;;;;;;20.51;100.00;98218.66;15279613;19;20019;-47
2023/05/21 20:09:28;;;;;;;2.13;1.90;;;;;;;20.44;100.00;98228.81;15285637;19;20010;-47
2023/05/21 20:14:53;;;;;;;2.65;2.10;;;;;;;20.31;100.00;98225.19;15279072;19;20380;-49
2023/05/21 20:20:21;;;;;;;2.10;1.70;;;;;;;20.21;100.00;98230.38;15273746;19;20067;-45
2023/05/21 20:25:45;;;;;;;2.83;2.13;;;;;;;20.12;100.00;98226.28;15283833;19;20014;-45
2023/05/21 20:31:10;;;;;;;4.40;2.08;;;;;;;19.99;100.00;98227.28;15282933;19;20021;-49
2023/05/21 20:36:39;;;;;;;2.35;2.00;;;;;;;19.88;100.00;98231.59;15277961;19;21363;-46
2023/05/21 20:42:07;;;;;;;2.30;2.10;;;;;;;19.76;100.00;98227.91;15280996;19;20023;-46
2023/05/21 20:47:32;;;;;;;3.63;2.17;;;;;;;19.65;100.00;98233.03;15279131;19;20505;-45
2023/05/21 20:53:00;;;;;;;2.83;2.10;;;;;;;19.56;100.00;98228.94;15274743;19;20540;-45
2023/05/21 20:58:24;;;;;;;4.05;2.15;;;;;;;19.48;100.00;98223.72;15279177;19;20018;-45
2023/05/21 21:03:50;;;;;;;2.60;2.20;;;;;;;19.39;100.00;98234.13;15278330;19;20363;-45
2023/05/21 21:09:17;;;;;;;2.40;2.20;;;;;;;19.32;100.00;98226.00;15257445;19;20010;-45
2023/05/21 21:14:49;;;;;;;2.53;1.90;;;;;;;19.26;100.00;98235.06;15277033;19;20011;-46
2023/05/21 21:20:16;;;;;;;2.20;2.00;;;;;;;19.20;100.00;98236.78;15281024;19;20017;-47
2023/05/21 21:25:43;;;;;;;2.67;2.20;;;;;;;19.11;100.00;98240.03;15273565;19;20021;-45
2023/05/21 21:31:08;;;;;;;3.08;2.00;;;;;;;19.00;100.00;98239.66;15279385;19;20015;-45
2023/05/21 21:36:32;;;;;;;3.00;2.20;;;;;;;18.92;100.00;98240.75;15279729;19;20022;-46
2023/05/21 21:42:01;;;;;;;2.63;2.25;;;;;;;18.85;100.00;98239.94;15275878;19;20028;-45
2023/05/21 21:47:25;;;;;;;2.50;2.10;;;;;;;18.77;100.00;98226.56;15278648;19;20014;-48
2023/05/21 21:52:54;;;;;;;3.17;2.05;;;;;;;18.72;100.00;98234.56;15278527;19;20041;-46
2023/05/21 21:58:21;;;;;;;2.65;2.13;;;;;;;18.67;100.00;98239.84;15269475;19;20011;-46
2023/05/21 22:03:46;;;;;;;3.10;2.20;;;;;;;18.61;100.00;98238.81;15276791;19;20020;-45
2023/05/21 22:09:10;;;;;;;2.88;2.00;;;;;;;18.56;100.00;98241.34;15278638;19;20018;-45
2023/05/21 22:14:39;;;;;;;5.22;2.30;;;;;;;18.53;100.00;98234.44;15271871;19;20371;-45
2023/05/21 22:20:04;;;;;;;3.17;2.17;;;;;;;18.47;100.00;98232.56;15278583;19;20089;-45
2023/05/21 22:25:29;;;;;;;3.53;2.20;;;;;;;18.40;100.00;98232.63;15279003;19;20025;-45
2023/05/21 22:30:56;;;;;;;5.20;2.30;;;;;;;18.34;100.00;98236.22;15274051;19;20386;-45
2023/05/21 22:36:21;;;;;;;2.85;2.05;;;;;;;18.27;100.00;98240.88;15289851;19;20090;-46
2023/05/21 22:41:53;;;;;;;2.67;2.40;;;;;;;18.25;100.00;98240.25;15288064;19;20074;-46
2023/05/21 22:47:22;;;;;;;3.75;2.17;;;;;;;18.19;100.00;98241.94;15291203;19;20093;-47
2023/05/21 22:52:47;;;;;;;3.05;2.45;;;;;;;18.13;100.00;98234.59;15289529;19;20989;-46
2023/05/21 22:58:13;;;;;;;4.32;2.30;;;;;;;18.09;100.00;98233.38;15286753;19;20718;-46
2023/05/21 23:03:40;;;;;;;2.85;2.22;;;;;;;18.05;100.00;98241.13;15280212;19;20477;-47
2023/05/21 23:09:05;;;;;;;2.92;2.20;;;;;;;18.00;100.00;98235.50;15289889;19;20460;-45
2023/05/21 23:14:30;;;;;;;3.80;2.30;;;;;;;17.95;100.00;98241.56;15284445;19;20017;-44
2023/05/21 23:19:58;;;;;;;2.50;2.30;;;;;;;17.90;100.00;98232.34;15289637;19;20031;-45
2023/05/21 23:25:22;;;;;;;3.38;2.35;;;;;;;17.81;100.00;98226.28;15289709;19;20019;-45
2023/05/21 23:30:48;;;;;;;4.18;2.42;;;;;;;17.75;100.00;98236.16;15287580;19;20021;-46
2023/05/21 23:36:16;;;;;;;2.90;2.47;;;;;;;17.67;100.00;98233.66;15280747;19;20603;-46
2023/05/21 23:41:41;;;;;;;3.38;2.40;;;;;;;17.64;100.00;98234.91;15287518;19;20029;-46
2023/05/21 23:47:05;;;;;;;3.33;2.20;;;;;;;17.60;100.00;98238.25;15285301;19;20638;-46
2023/05/21 23:52:33;;;;;;;6.38;2.40;;;;;;;17.56;100.00;98233.25;15286076;19;20368;-47
2023/05/21 23:57:57;;;;;;;3.15;2.20;;;;;;;17.51;100.00;98224.88;15283281;19;20364;-44
